Time;durP1;ratioP1;P1;durP2;ratioP2;P2;SDS_P1;SDS_P2;PMS_P1;PMS_P2;Temp;Humidity;BMP_temperature;BMP_pressure;BME280_temperature;BME280_humidity;BME280_pressure;Samples;Min_cycle;Max_cycle;Signal;HPM_P1;HPM_P2
2024/03/19 00:01:33;;;;;;;53.10;32.60;;;;;;;1.46;67.54;97352.81;107955;1239;99249;-82
2024/03/19 00:04:20;;;;;;;54.70;34.20;;;;;;;1.46;67.59;97354.02;107804;1240;100518;-83
2024/03/19 00:07:02;;;;;;;47.30;32.90;;;;;;;1.44;67.83;97353.69;107862;1240;99814;-82
2024/03/19 00:09:31;;;;;;;51.00;33.30;;;;;;;1.42;67.99;97355.14;107933;1237;99175;-83
2024/03/19 00:11:57;;;;;;;49.20;32.30;;;;;;;1.40;68.24;97354.52;107923;1237;99712;-83
2024/03/19 00:14:53;;;;;;;50.10;31.10;;;;;;;1.37;68.39;97357.64;107925;1249;99688;-82
2024/03/19 00:17:23;;;;;;;51.70;32.70;;;;;;;1.35;68.58;97355.86;107820;1249;100284;-82
2024/03/19 00:19:53;;;;;;;55.00;32.30;;;;;;;1.30;68.82;97357.13;107946;1238;99281;-84
2024/03/19 00:22:43;;;;;;;51.00;32.90;;;;;;;1.21;69.09;97357.27;107909;1240;99257;-83
2024/03/19 00:25:10;;;;;;;52.00;32.60;;;;;;;1.15;69.38;97357.77;107935;1242;99748;-83
2024/03/19 00:28:17;;;;;;;49.80;34.30;;;;;;;1.11;69.54;97356.17;107904;1238;99249;-82
2024/03/19 00:30:44;;;;;;;50.50;34.10;;;;;;;1.09;69.70;97355.48;107946;1247;101291;-83
2024/03/19 00:33:11;;;;;;;54.30;34.60;;;;;;;1.11;69.78;97355.02;107904;1247;99939;-82
2024/03/19 00:35:41;;;;;;;51.30;33.70;;;;;;;1.11;69.74;97352.29;107885;1235;100481;-82
2024/03/19 00:38:09;;;;;;;54.40;36.60;;;;;;;1.11;69.76;97355.87;107935;1240;100514;-84
2024/03/19 00:40:35;;;;;;;55.70;37.50;;;;;;;1.11;69.91;97354.58;107932;1240;99327;-83
2024/03/19 00:43:03;;;;;;;51.80;34.50;;;;;;;1.12;69.89;97355.55;107921;1237;99176;-82
2024/03/19 00:45:30;;;;;;;57.50;35.50;;;;;;;1.12;70.12;97355.20;107977;1248;99348;-82
2024/03/19 00:48:19;;;;;;;50.80;34.30;;;;;;;1.12;70.24;97355.40;107870;1247;99341;-81
2024/03/19 00:50:48;;;;;;;53.70;35.70;;;;;;;1.11;70.62;97354.65;107932;1238;99854;-81
2024/03/19 00:53:55;;;;;;;50.50;35.00;;;;;;;1.04;70.97;97356.33;107937;1247;104734;-81
2024/03/19 00:56:33;;;;;;;52.80;35.60;;;;;;;0.96;71.26;97358.72;107930;1235;100924;-84
2024/03/19 00:59:20;;;;;;;54.00;36.00;;;;;;;0.94;71.34;97352.79;107903;1235;99332;-82
2024/03/19 01:01:49;;;;;;;50.50;34.20;;;;;;;0.96;71.44;97355.23;107890;1247;99720;-80
2024/03/19 01:04:56;;;;;;;50.60;34.40;;;;;;;0.99;71.54;97352.05;107919;1247;99841;-79
2024/03/19 01:07:23;;;;;;;50.00;33.80;;;;;;;1.01;71.60;97348.83;107905;1247;104676;-79
2024/03/19 01:09:52;;;;;;;50.40;34.50;;;;;;;1.03;71.70;97351.30;107940;1237;99262;-82
2024/03/19 01:12:18;;;;;;;52.60;35.30;;;;;;;0.98;71.99;97352.89;107897;1248;99463;-83
2024/03/19 01:14:44;;;;;;;52.70;34.80;;;;;;;0.92;72.10;97353.27;107887;1237;99165;-80
2024/03/19 01:17:41;;;;;;;48.70;33.00;;;;;;;0.89;72.23;97354.52;107923;1247;99265;-83
2024/03/19 01:20:11;;;;;;;50.00;35.00;;;;;;;0.84;72.48;97354.43;107922;1247;104859;-82
2024/03/19 01:22:53;;;;;;;53.20;33.10;;;;;;;0.84;72.61;97353.96;107976;1238;101219;-83
2024/03/19 01:25:23;;;;;;;50.00;32.40;;;;;;;0.86;72.64;97356.42;107884;1247;100184;-81
2024/03/19 01:27:51;;;;;;;47.50;32.70;;;;;;;0.86;72.75;97356.91;107885;1247;99258;-80
2024/03/19 01:30:17;;;;;;;47.10;32.40;;;;;;;0.87;72.74;97355.07;107925;1238;99273;-82
2024/03/19 01:32:53;;;;;;;46.80;32.60;;;;;;;0.89;72.80;97357.35;107962;1233;99326;-83
2024/03/19 01:35:30;;;;;;;44.30;31.10;;;;;;;0.86;72.99;97356.20;107918;1237;101188;-84
2024/03/19 01:37:57;;;;;;;45.70;30.90;;;;;;;0.81;73.17;97358.90;107937;1247;99821;-82
2024/03/19 01:41:04;;;;;;;47.50;31.10;;;;;;;0.81;73.15;97362.04;107936;1247;99248;-82
2024/03/19 01:43:30;;;;;;;49.40;31.50;;;;;;;0.81;73.43;97354.63;107945;1249;99249;-83
2024/03/19 01:46:28;;;;;;;42.20;29.60;;;;;;;0.81;73.53;97357.98;107938;1247;99307;-84
2024/03/19 01:48:59;;;;;;;39.30;28.70;;;;;;;0.79;73.74;97354.41;107922;1238;101555;-82
2024/03/19 01:51:26;;;;;;;43.70;30.20;;;;;;;0.76;73.77;97357.23;107900;1247;99917;-78
2024/03/19 01:54:22;;;;;;;42.30;30.60;;;;;;;0.75;73.82;97354.29;107971;1240;99322;-80
2024/03/19 01:56:49;;;;;;;41.90;29.20;;;;;;;0.73;73.98;97357.16;107884;1238;99802;-79
2024/03/19 01:59:16;;;;;;;38.90;29.30;;;;;;;0.72;74.11;97356.23;107914;1237;99863;-78
2024/03/19 02:01:42;;;;;;;39.90;29.20;;;;;;;0.69;74.06;97354.38;107890;1248;99274;-81
2024/03/19 02:04:09;;;;;;;38.70;28.20;;;;;;;0.67;74.21;97352.46;107999;1235;100046;-81
2024/03/19 02:06:43;;;;;;;41.90;29.00;;;;;;;0.67;74.31;97354.36;107957;1238;99730;-82
2024/03/19 02:09:12;;;;;;;39.20;29.00;;;;;;;0.70;74.44;97356.41;107933;1245;103802;-81
2024/03/19 02:11:42;;;;;;;43.20;29.30;;;;;;;0.70;74.43;97355.19;107911;1247;101243;-83
2024/03/19 02:14:11;;;;;;;42.50;28.90;;;;;;;0.72;74.31;97358.20;107904;1246;105561;-85
2024/03/19 02:16:41;;;;;;;42.20;29.00;;;;;;;0.71;74.64;97358.25;107871;1247;99345;-82
2024/03/19 02:19:07;;;;;;;39.90;29.60;;;;;;;0.67;74.74;97355.51;107967;1238;99828;-80
2024/03/19 02:21:34;;;;;;;42.50;30.40;;;;;;;0.66;74.58;97358.00;107925;1239;99323;-80
2024/03/19 02:24:41;;;;;;;44.10;29.40;;;;;;;0.69;74.69;97356.37;107904;1249;99695;-81
2024/03/19 02:27:32;;;;;;;40.60;29.50;;;;;;;0.72;74.61;97357.39;107870;1247;100116;-84
2024/03/19 02:30:31;;;;;;;44.30;30.50;;;;;;;0.77;74.44;97358.54;107885;1239;99294;-79
2024/03/19 02:32:58;;;;;;;40.00;29.10;;;;;;;0.81;74.49;97357.76;107916;1237;99685;-83
2024/03/19 02:35:27;;;;;;;41.20;30.20;;;;;;;0.83;74.49;97361.80;107920;1235;99333;-83
2024/03/19 02:37:56;;;;;;;41.40;29.20;;;;;;;0.86;74.43;97360.50;107912;1238;101208;-82
2024/03/19 02:40:26;;;;;;;42.60;28.50;;;;;;;0.88;74.34;97363.42;107903;1238;99800;-83
2024/03/19 02:42:52;;;;;;;40.50;30.00;;;;;;;0.91;74.21;97366.20;107900;1237;99329;-82
2024/03/19 02:45:21;;;;;;;39.30;28.00;;;;;;;0.94;74.20;97364.28;107957;1247;99714;-83
2024/03/19 02:47:47;;;;;;;43.20;29.00;;;;;;;0.96;74.28;97367.44;107909;1247;104851;-81
2024/03/19 02:50:16;;;;;;;43.10;29.50;;;;;;;0.97;74.18;97364.84;107932;1248;99258;-83
2024/03/19 02:53:06;;;;;;;41.40;28.90;;;;;;;0.99;74.30;97360.77;107749;1243;222496;-84
2024/03/19 02:55:32;;;;;;;38.80;27.30;;;;;;;1.00;74.21;97368.58;107836;1234;99346;-81
2024/03/19 02:58:39;;;;;;;42.50;28.80;;;;;;;1.01;74.15;97368.66;107913;1235;99706;-83
2024/03/19 03:01:26;;;;;;;40.90;28.70;;;;;;;1.01;74.22;97377.54;107945;1234;105604;-85
2024/03/19 03:03:57;;;;;;;42.30;29.80;;;;;;;1.02;74.30;97376.94;107920;1237;99870;-82
2024/03/19 03:06:26;;;;;;;42.20;30.10;;;;;;;0.96;74.36;97379.32;107458;1243;99465;-79
2024/03/19 03:08:55;;;;;;;43.00;28.60;;;;;;;0.93;74.40;97382.05;107887;1239;99242;-82
2024/03/19 03:12:03;;;;;;;43.60;31.00;;;;;;;0.95;74.39;97381.02;107893;1239;99233;-81
2024/03/19 03:14:46;;;;;;;43.40;29.90;;;;;;;0.97;74.46;97383.41;107968;1237;104704;-82
2024/03/19 03:17:14;;;;;;;;;;;;;;;1.00;74.49;97384.79;107963;1237;101253;-82
2024/03/19 03:19:41;;;;;;;41.60;31.00;;;;;;;0.98;74.62;97389.39;107862;1248;106532;-82
2024/03/19 03:22:38;;;;;;;43.00;31.20;;;;;;;0.98;74.68;97391.13;107903;1247;99353;-82
2024/03/19 03:25:08;;;;;;;46.20;32.10;;;;;;;1.01;74.67;97387.83;107901;1241;99719;-80
2024/03/19 03:27:35;;;;;;;45.20;30.90;;;;;;;1.03;74.59;97391.52;107967;1237;104673;-83
2024/03/19 03:30:22;;;;;;;46.90;29.60;;;;;;;1.06;74.51;97398.72;107918;1237;100471;-83
2024/03/19 03:32:52;;;;;;;42.10;29.80;;;;;;;1.06;74.57;97396.19;107908;1237;100389;-81
2024/03/19 03:35:47;;;;;;;44.50;31.30;;;;;;;1.05;74.51;97397.68;107927;1235;99272;-81
2024/03/19 03:38:13;;;;;;;44.30;31.40;;;;;;;1.06;74.60;97400.67;107934;1237;99680;-80
2024/03/19 03:40:40;;;;;;;44.50;28.80;;;;;;;1.06;74.56;97402.07;107947;1237;100504;-80
2024/03/19 03:43:30;;;;;;;40.20;29.20;;;;;;;1.05;74.49;97399.88;107896;1248;99239;-81
2024/03/19 03:46:37;;;;;;;43.90;31.40;;;;;;;1.05;74.50;97403.27;107874;1238;99733;-82
2024/03/19 03:49:03;;;;;;;41.70;29.30;;;;;;;1.04;74.45;97406.70;107923;1247;99245;-79
2024/03/19 03:51:29;;;;;;;42.00;28.90;;;;;;;1.04;74.45;97411.29;107932;1237;99239;-80
2024/03/19 03:54:19;;;;;;;42.40;28.80;;;;;;;1.05;74.52;97410.61;107934;1237;99283;-79
2024/03/19 03:56:47;;;;;;;41.10;31.10;;;;;;;1.07;74.51;97409.89;107846;1247;101193;-79
2024/03/19 03:59:14;;;;;;;44.00;30.50;;;;;;;1.08;74.54;97410.70;107899;1241;99997;-79
2024/03/19 04:01:42;;;;;;;45.60;31.40;;;;;;;1.09;74.53;97415.75;107914;1238;99364;-82
2024/03/19 04:04:49;;;;;;;43.30;30.00;;;;;;;1.10;74.65;97413.55;107907;1238;99735;-83
2024/03/19 04:07:19;;;;;;;45.20;31.10;;;;;;;1.09;74.71;97413.73;107872;1237;105107;-81
2024/03/19 04:09:45;;;;;;;42.30;28.80;;;;;;;1.10;74.60;97414.08;107933;1238;100260;-79
2024/03/19 04:12:15;;;;;;;44.00;30.00;;;;;;;1.10;74.52;97421.80;107901;1236;99265;-83
2024/03/19 04:14:44;;;;;;;43.70;29.40;;;;;;;1.09;74.51;97418.20;107934;1238;99358;-80
2024/03/19 04:17:12;;;;;;;43.20;29.50;;;;;;;1.09;74.48;97423.36;107942;1247;99688;-82
2024/03/19 04:19:43;;;;;;;40.30;29.60;;;;;;;1.09;74.65;97424.59;107945;1235;104688;-84
2024/03/19 04:22:09;;;;;;;41.50;29.70;;;;;;;1.05;74.67;97424.43;107912;1238;101222;-80
2024/03/19 04:24:38;;;;;;;41.30;27.20;;;;;;;1.05;74.75;97426.42;107881;1239;99392;-81
2024/03/19 04:27:30;;;;;;;41.90;29.80;;;;;;;1.03;74.69;97424.14;107897;1246;99179;-82
2024/03/19 04:29:56;;;;;;;43.30;29.60;;;;;;;1.05;74.79;97427.71;107921;1238;99712;-84
2024/03/19 04:32:23;;;;;;;44.50;30.20;;;;;;;1.04;74.72;97428.61;107871;1238;99735;-84
2024/03/19 04:34:52;;;;;;;42.60;29.10;;;;;;;1.04;74.73;97431.16;107953;1238;99336;-83
2024/03/19 04:37:40;;;;;;;45.20;29.50;;;;;;;1.04;74.70;97428.44;107912;1238;100090;-82
2024/03/19 04:40:11;;;;;;;45.10;29.30;;;;;;;1.06;74.76;97426.73;107954;1248;99349;-82
2024/03/19 04:42:41;;;;;;;44.40;31.20;;;;;;;1.05;74.71;97429.41;107948;1247;100506;-83
2024/03/19 04:45:09;;;;;;;44.70;32.50;;;;;;;1.04;74.71;97433.31;107899;1244;104829;-80
2024/03/19 04:47:36;;;;;;;44.70;30.60;;;;;;;1.04;74.66;97437.57;107944;1239;101065;-81
2024/03/19 04:50:07;;;;;;;42.70;31.00;;;;;;;1.05;74.82;97437.98;107861;1238;99773;-80
2024/03/19 04:52:37;;;;;;;42.60;30.20;;;;;;;1.05;74.88;97441.34;107878;1241;99250;-81
2024/03/19 04:55:04;;;;;;;42.30;29.00;;;;;;;1.04;74.79;97442.85;107912;1242;99862;-81
2024/03/19 04:57:30;;;;;;;40.20;29.80;;;;;;;1.03;74.76;97445.23;107897;1247;99261;-82
2024/03/19 05:00:19;;;;;;;39.90;29.80;;;;;;;1.02;74.79;97444.45;107951;1241;99220;-82
2024/03/19 05:02:50;;;;;;;40.60;29.30;;;;;;;1.01;74.96;97448.41;107335;1242;99342;-83
2024/03/19 05:05:17;;;;;;;41.80;28.40;;;;;;;1.00;74.94;97455.08;107363;1252;99258;-83
2024/03/19 05:07:44;;;;;;;44.80;30.90;;;;;;;0.95;75.07;97455.40;107388;1253;99444;-82
2024/03/19 05:10:16;;;;;;;48.30;32.60;;;;;;;0.93;75.19;97454.27;107374;1250;99347;-81
2024/03/19 05:12:45;;;;;;;57.80;38.70;;;;;;;0.84;75.28;97458.69;107356;1238;99893;-82
2024/03/19 05:15:12;;;;;;;50.20;35.70;;;;;;;0.80;75.38;97461.01;107354;1243;99804;-82
2024/03/19 05:17:38;;;;;;;43.60;32.70;;;;;;;0.81;75.53;97463.34;107316;1241;99437;-80
2024/03/19 05:20:07;;;;;;;48.80;34.50;;;;;;;0.83;75.52;97465.52;107363;1253;99460;-81
2024/03/19 05:22:35;;;;;;;54.90;36.10;;;;;;;0.85;75.56;97467.76;107413;1242;99438;-80
2024/03/19 05:25:42;;;;;;;60.00;43.20;;;;;;;0.88;75.46;97469.78;107289;1243;101138;-82
2024/03/19 05:28:14;;;;;;;70.10;48.30;;;;;;;0.91;75.52;97467.36;107351;1253;99842;-79
2024/03/19 05:30:41;;;;;;;61.80;39.80;;;;;;;0.93;75.51;97470.66;107316;1248;99447;-81
2024/03/19 05:33:07;;;;;;;60.80;36.70;;;;;;;0.95;75.50;97475.13;107424;1244;99469;-79
2024/03/19 05:35:33;;;;;;;56.90;35.80;;;;;;;0.96;75.35;97475.92;107916;1238;99169;-80
2024/03/19 05:38:00;;;;;;;57.90;33.50;;;;;;;0.95;75.38;97480.03;107966;1240;99248;-79
2024/03/19 05:40:27;;;;;;;61.70;34.20;;;;;;;0.97;75.31;97483.17;107879;1239;99317;-84
2024/03/19 05:42:58;;;;;;;61.00;38.20;;;;;;;0.98;75.34;97483.13;107909;1248;99310;-83
2024/03/19 05:45:27;;;;;;;59.70;37.70;;;;;;;1.00;75.39;97485.20;107901;1241;103991;-79
2024/03/19 05:47:53;;;;;;;49.40;32.00;;;;;;;1.04;75.46;97490.37;107919;1238;101420;-81
2024/03/19 05:50:20;;;;;;;40.70;30.10;;;;;;;1.05;75.40;97494.34;107862;1247;99311;-81
2024/03/19 05:52:47;;;;;;;46.30;29.60;;;;;;;1.02;75.42;97495.08;107892;1248;99248;-82
2024/03/19 05:55:16;;;;;;;47.10;31.60;;;;;;;1.02;75.38;97497.79;107966;1248;99770;-84
2024/03/19 05:57:47;;;;;;;46.60;30.30;;;;;;;1.02;75.39;97500.98;107887;1246;100191;-82
2024/03/19 06:00:15;;;;;;;49.00;30.60;;;;;;;1.01;75.41;97503.36;107871;1241;99806;-81
2024/03/19 06:02:42;;;;;;;49.50;31.40;;;;;;;0.99;75.48;97502.67;107819;1241;99615;-83
2024/03/19 06:05:09;;;;;;;50.30;31.70;;;;;;;0.98;75.52;97505.42;107876;1237;99361;-82
2024/03/19 06:07:35;;;;;;;53.20;31.70;;;;;;;0.94;75.62;97505.02;107892;1244;99252;-82
2024/03/19 06:10:05;;;;;;;42.10;31.60;;;;;;;0.88;75.87;97509.85;107951;1238;99332;-81
2024/03/19 06:12:31;;;;;;;50.60;32.30;;;;;;;0.82;76.03;97515.07;107922;1235;99230;-82
2024/03/19 06:14:58;;;;;;;49.30;33.40;;;;;;;0.76;76.07;97518.75;107963;1237;100383;-82
2024/03/19 06:17:26;;;;;;;52.00;33.40;;;;;;;0.77;76.21;97519.75;107886;1249;99243;-83
2024/03/19 06:19:53;;;;;;;48.40;31.20;;;;;;;0.77;76.36;97515.10;107970;1237;99709;-83
2024/03/19 06:22:23;;;;;;;48.50;32.60;;;;;;;0.79;76.39;97522.23;107883;1242;99346;-83
2024/03/19 06:24:49;;;;;;;46.50;30.70;;;;;;;0.76;76.60;97525.35;107905;1241;99249;-81
2024/03/19 06:27:19;;;;;;;47.10;33.10;;;;;;;0.71;76.46;97524.04;107918;1238;99277;-81
2024/03/19 06:29:45;;;;;;;47.90;32.20;;;;;;;0.73;76.57;97525.11;107919;1238;104719;-81
2024/03/19 06:32:34;;;;;;;47.90;33.10;;;;;;;0.76;76.59;97523.95;107935;1237;99737;-80
2024/03/19 06:35:04;;;;;;;47.30;33.30;;;;;;;0.79;76.62;97528.92;107879;1237;107149;-79
2024/03/19 06:37:31;;;;;;;48.80;33.50;;;;;;;0.83;76.75;97531.79;107910;1247;99274;-79
2024/03/19 09:07:46;;;;;;;18.00;13.70;;;;;;;5.52;67.81;97602.80;108028;1237;99263;-81
2024/03/19 09:10:28;;;;;;;17.20;10.40;;;;;;;5.93;66.79;97605.02;107782;1244;104752;-82
2024/03/19 09:13:11;;;;;;;15.90;10.90;;;;;;;6.24;65.46;97604.70;107785;1244;101374;-84
2024/03/19 09:15:42;;;;;;;;;;;;;;;6.66;64.66;97602.46;107897;1237;100509;-77
2024/03/19 09:18:15;;;;;;;11.90;9.20;;;;;;;7.03;63.86;97604.52;107882;1235;99241;-77
2024/03/19 09:21:22;;;;;;;13.80;10.10;;;;;;;7.48;64.39;97605.80;107901;1241;99682;-78
2024/03/19 09:24:19;;;;;;;17.50;11.40;;;;;;;7.68;62.76;97607.84;107832;1237;103537;-82
2024/03/19 09:26:45;;;;;;;14.30;10.30;;;;;;;7.62;61.70;97611.69;107912;1235;101155;-78
2024/03/19 09:29:16;;;;;;;17.90;11.20;;;;;;;7.29;59.44;97615.95;107888;1234;99397;-78
2024/03/19 09:32:03;;;;;;;16.40;10.70;;;;;;;6.74;59.62;97620.33;107888;1237;99272;-83
2024/03/19 09:34:40;;;;;;;14.60;11.90;;;;;;;6.21;59.20;97621.94;107871;1247;99713;-83
2024/03/19 09:37:31;;;;;;;13.30;10.30;;;;;;;5.76;60.48;97626.63;107953;1237;105187;-82
2024/03/19 09:40:14;;;;;;;14.60;11.10;;;;;;;5.63;61.15;97630.34;107939;1238;101219;-82
2024/03/19 09:43:21;;;;;;;16.20;12.10;;;;;;;5.63;61.42;97632.86;107908;1237;99271;-82
2024/03/19 09:46:11;;;;;;;13.20;9.90;;;;;;;5.64;61.44;97637.55;107921;1243;100448;-82
2024/03/19 09:49:01;;;;;;;11.60;9.20;;;;;;;5.47;60.53;97640.15;107900;1237;99671;-83
2024/03/19 09:51:41;;;;;;;16.60;11.40;;;;;;;5.33;60.52;97639.90;107762;1234;105236;-77
2024/03/19 09:54:48;;;;;;;12.90;8.90;;;;;;;5.33;60.65;97637.05;107877;1244;101324;-77
2024/03/19 09:57:46;;;;;;;10.70;7.70;;;;;;;5.58;60.76;97634.77;107894;1245;100139;-78
2024/03/19 10:00:53;;;;;;;9.00;7.00;;;;;;;5.99;60.38;97634.69;107882;1234;99261;-78
2024/03/19 10:03:23;;;;;;;10.00;6.80;;;;;;;6.31;59.96;97631.16;107365;1238;99942;-78
2024/03/19 10:06:30;;;;;;;7.50;6.40;;;;;;;6.58;59.71;97627.30;107340;1250;104850;-78
2024/03/19 10:09:37;;;;;;;8.90;6.20;;;;;;;7.00;59.56;97621.66;107290;1251;101236;-83
2024/03/19 10:12:43;;;;;;;10.10;7.70;;;;;;;7.59;59.00;97615.57;107115;1253;99304;-83
2024/03/19 10:15:37;;;;;;;10.50;7.70;;;;;;;8.24;59.04;97614.80;107334;1242;99526;-84
2024/03/19 10:18:38;;;;;;;9.50;7.60;;;;;;;8.73;57.57;97621.20;107342;1244;99709;-78
2024/03/19 10:21:26;;;;;;;11.10;7.10;;;;;;;8.49;55.81;97618.88;107363;1238;104773;-77
2024/03/19 10:24:26;;;;;;;8.80;7.00;;;;;;;8.14;56.07;97620.77;107322;1243;101145;-77
2024/03/19 10:27:33;;;;;;;9.70;7.10;;;;;;;7.78;55.92;97626.10;107308;1242;99695;-77
2024/03/19 10:30:21;;;;;;;8.70;6.30;;;;;;;7.59;56.36;97624.75;107261;1238;99504;-84
2024/03/19 10:33:15;;;;;;;8.30;6.70;;;;;;;7.54;56.10;97627.86;107405;1238;99961;-83
2024/03/19 10:36:04;;;;;;;9.00;5.40;;;;;;;7.47;55.48;97627.27;107375;1248;104865;-83
2024/03/19 10:39:11;;;;;;;7.80;5.90;;;;;;;7.67;55.64;97621.98;107444;1240;101258;-84
2024/03/19 10:41:51;;;;;;;8.30;5.80;;;;;;;8.30;53.83;97620.93;107837;1235;99982;-82
2024/03/19 10:44:58;;;;;;;6.80;5.70;;;;;;;8.76;52.80;97622.25;107962;1241;99240;-82
2024/03/19 10:48:05;;;;;;;7.30;5.30;;;;;;;8.96;52.08;97623.48;107942;1239;99767;-77
2024/03/19 10:51:12;;;;;;;6.80;5.50;;;;;;;8.78;51.21;97626.27;107890;1235;104632;-77
2024/03/19 10:54:02;;;;;;;7.50;5.40;;;;;;;8.45;48.90;97624.61;107894;1235;101253;-78
2024/03/19 10:57:09;;;;;;;7.70;5.70;;;;;;;8.22;50.86;97624.41;107898;1237;100498;-80
2024/03/19 11:00:12;;;;;;;9.50;6.60;;;;;;;8.21;51.21;97622.40;107884;1238;99248;-77
2024/03/19 11:02:59;;;;;;;8.00;6.10;;;;;;;8.16;51.73;97620.63;107933;1234;99418;-82
2024/03/19 11:06:08;;;;;;;8.30;6.40;;;;;;;8.00;50.56;97624.50;107921;1235;104746;-80
2024/03/19 11:09:19;;;;;;;14.60;6.70;;;;;;;7.67;51.49;97626.92;107856;1234;100498;-79
2024/03/19 11:12:26;;;;;;;11.40;7.20;;;;;;;7.52;51.71;97632.02;107305;1240;99999;-80
2024/03/19 11:15:29;;;;;;;9.50;7.20;;;;;;;7.38;51.96;97633.02;107339;1244;99330;-79
2024/03/19 11:18:27;;;;;;;8.50;6.70;;;;;;;7.28;51.59;97627.43;107327;1242;100678;-79
2024/03/19 11:21:14;;;;;;;9.50;6.30;;;;;;;7.28;52.19;97626.33;107311;1243;104780;-79
2024/03/19 11:24:21;;;;;;;8.00;6.50;;;;;;;7.32;52.08;97630.14;107321;1240;101380;-81
2024/03/19 11:26:53;;;;;;;10.30;6.80;;;;;;;7.38;51.72;97629.92;107400;1243;100536;-82
2024/03/19 11:29:22;;;;;;;9.30;6.80;;;;;;;7.44;51.76;97633.11;107313;1245;99255;-81
2024/03/19 11:32:10;;;;;;;8.80;6.20;;;;;;;7.45;51.88;97631.94;107422;1244;100402;-81
2024/03/19 11:35:17;;;;;;;8.20;6.30;;;;;;;7.66;51.74;97631.91;107297;1244;104341;-80
2024/03/19 11:38:06;;;;;;;7.60;5.90;;;;;;;7.95;51.31;97630.52;107348;1240;101330;-79
2024/03/19 11:41:12;;;;;;;7.90;5.70;;;;;;;8.06;50.94;97630.18;107276;1243;99798;-81
2024/03/19 11:44:10;;;;;;;7.40;6.20;;;;;;;7.91;51.14;97628.95;107279;1242;99260;-80
2024/03/19 11:46:36;;;;;;;6.80;5.60;;;;;;;8.27;52.01;97627.16;107203;1241;99779;-77
2024/03/19 11:49:46;;;;;;;8.80;5.70;;;;;;;8.83;50.85;97624.79;107610;1237;99338;-77
2024/03/19 11:52:53;;;;;;;8.40;6.50;;;;;;;9.27;50.30;97620.01;107193;1241;100952;-76
2024/03/19 11:56:00;;;;;;;9.90;5.80;;;;;;;9.37;49.90;97617.38;107127;1248;100234;-78
2024/03/19 11:59:06;;;;;;;20.80;9.90;;;;;;;9.64;49.26;97617.42;107131;1245;99489;-77
2024/03/19 12:02:12;;;;;;;11.60;7.10;;;;;;;9.68;49.25;97618.40;107213;1245;99720;-76
2024/03/19 12:05:21;;;;;;;9.10;6.30;;;;;;;9.85;49.04;97612.96;107057;1241;104769;-83
2024/03/19 12:08:20;;;;;;;7.00;5.40;;;;;;;9.84;48.68;97610.05;106930;1254;101312;-84
2024/03/19 12:11:20;;;;;;;7.40;6.00;;;;;;;9.84;48.61;97607.82;107080;1246;99915;-88
2024/03/19 12:14:27;;;;;;;8.00;4.60;;;;;;;9.90;48.22;97608.61;107096;1245;99328;-83
2024/03/19 12:17:34;;;;;;;7.50;5.50;;;;;;;9.59;47.40;97606.83;107123;1244;99791;-82
2024/03/19 12:20:31;;;;;;;7.00;5.70;;;;;;;9.27;47.86;97610.89;107167;1244;105068;-82
2024/03/19 12:23:37;;;;;;;6.70;4.90;;;;;;;9.34;47.83;97609.43;107142;1245;101255;-78
2024/03/19 12:26:24;;;;;;;7.80;5.30;;;;;;;9.74;45.29;97603.95;107145;1244;99983;-77
2024/03/19 12:29:34;;;;;;;9.90;5.50;;;;;;;9.95;44.85;97601.14;107156;1248;99275;-77
2024/03/19 12:32:47;;;;;;;6.60;4.90;;;;;;;10.39;46.39;97604.98;107266;1245;99672;-78
2024/03/19 12:35:54;;;;;;;5.50;4.50;;;;;;;10.88;45.69;97596.85;107079;1246;105008;-79
2024/03/19 12:39:01;;;;;;;9.20;5.50;;;;;;;11.23;44.67;97596.35;107271;1241;100416;-77
2024/03/19 12:42:08;;;;;;;7.70;5.20;;;;;;;11.81;45.60;97593.45;107238;1245;100520;-82
2024/03/19 12:45:08;;;;;;;6.10;4.70;;;;;;;11.97;44.85;97593.71;107107;1240;99356;-80
2024/03/19 12:48:14;;;;;;;8.40;6.30;;;;;;;12.08;43.12;97589.09;107257;1244;99157;-79
2024/03/19 12:51:20;;;;;;;7.50;5.40;;;;;;;11.94;43.09;97587.75;107208;1245;104365;-77
2024/03/19 12:54:27;;;;;;;6.30;4.80;;;;;;;11.85;42.15;97583.26;107203;1245;100289;-79
2024/03/19 12:57:34;;;;;;;7.10;5.30;;;;;;;11.96;43.03;97579.16;107196;1245;99602;-77
2024/03/19 13:00:41;;;;;;;6.60;4.30;;;;;;;12.28;42.81;97583.77;107218;1244;99274;-82
2024/03/19 13:03:48;;;;;;;7.80;4.70;;;;;;;12.47;42.59;97584.23;107297;1245;99851;-77
2024/03/19 13:06:43;;;;;;;6.80;5.00;;;;;;;12.41;42.40;97581.56;107184;1254;105509;-80
2024/03/19 13:09:42;;;;;;;6.40;5.30;;;;;;;12.25;42.01;97576.78;107442;1234;101375;-79
2024/03/19 13:12:39;;;;;;;6.60;5.50;;;;;;;12.11;41.37;97576.88;107825;1237;99249;-78
2024/03/19 13:15:46;;;;;;;8.00;5.00;;;;;;;11.82;42.45;97577.77;107864;1237;99254;-79
2024/03/19 13:18:45;;;;;;;7.60;4.90;;;;;;;11.87;42.40;97570.67;107939;1237;99694;-79
2024/03/19 13:21:37;;;;;;;7.60;5.30;;;;;;;12.04;41.64;97567.21;107886;1241;105646;-84
2024/03/19 13:24:26;;;;;;;8.00;4.90;;;;;;;12.16;40.58;97563.70;107832;1244;101289;-85
2024/03/19 13:27:23;;;;;;;6.50;4.60;;;;;;;12.36;41.26;97559.77;107875;1248;99843;-85
2024/03/19 13:30:23;;;;;;;7.10;5.20;;;;;;;12.59;40.42;97560.39;107919;1235;99335;-84
2024/03/19 13:33:24;;;;;;;6.80;4.70;;;;;;;12.49;40.84;97563.52;107921;1237;99355;-83
2024/03/19 13:36:31;;;;;;;8.40;5.50;;;;;;;12.80;41.03;97559.55;107890;1240;105322;-84
2024/03/19 13:39:20;;;;;;;6.30;4.70;;;;;;;13.07;40.23;97557.34;107919;1237;101192;-83
2024/03/19 13:42:07;;;;;;;5.90;4.70;;;;;;;13.17;40.08;97550.09;107943;1237;99802;-86
2024/03/19 13:45:14;;;;;;;6.80;4.70;;;;;;;13.32;40.20;97552.86;107936;1237;99290;-86
2024/03/19 13:48:04;;;;;;;7.20;5.20;;;;;;;13.52;38.81;97549.84;107930;1237;99671;-85
2024/03/19 13:51:11;;;;;;;6.70;5.40;;;;;;;13.57;38.05;97545.86;107860;1239;103070;-83
2024/03/19 13:54:18;;;;;;;7.80;5.70;;;;;;;13.47;37.03;97544.70;108754;1234;101138;-84
2024/03/19 13:57:10;;;;;;;7.40;4.50;;;;;;;13.26;37.14;97539.58;109313;1234;99363;-84
2024/03/19 14:00:14;;;;;;;6.00;4.70;;;;;;;13.24;36.51;97538.87;107923;1245;100481;-78
2024/03/19 14:02:51;;;;;;;6.10;4.60;;;;;;;13.13;36.88;97545.21;107881;1244;99196;-76
2024/03/19 14:05:49;;;;;;;4.90;4.40;;;;;;;12.72;37.55;97550.16;107963;1237;103399;-76
2024/03/19 14:08:50;;;;;;;4.60;4.00;;;;;;;12.61;38.37;97550.21;107907;1246;101314;-80
2024/03/19 14:11:57;;;;;;;6.60;3.90;;;;;;;12.77;38.35;97542.93;107890;1248;99346;-77
2024/03/19 14:14:47;;;;;;;5.10;4.30;;;;;;;12.72;37.91;97542.66;107930;1237;99778;-76
2024/03/19 14:17:39;;;;;;;7.30;5.10;;;;;;;12.46;38.37;97544.20;107951;1247;99769;-79
2024/03/19 14:20:26;;;;;;;;;;;;;;;12.34;38.44;97546.51;107811;1237;105298;-78
2024/03/19 14:22:56;;;;;;;5.10;4.30;;;;;;;12.30;39.26;97549.06;107951;1238;101042;-78
2024/03/19 14:25:44;;;;;;;6.40;4.60;;;;;;;12.35;39.20;97549.61;108059;1237;99262;-78
2024/03/19 14:28:51;;;;;;;7.40;4.60;;;;;;;12.49;39.43;97551.02;111319;1233;97095;-76
2024/03/19 14:31:58;;;;;;;6.80;4.40;;;;;;;12.62;38.64;97549.07;108583;1237;99871;-79
2024/03/19 14:35:06;;;;;;;7.10;4.50;;;;;;;12.42;38.55;97550.11;107967;1241;104448;-78
2024/03/19 14:38:12;;;;;;;5.70;4.20;;;;;;;12.42;38.93;97549.70;107919;1246;101629;-81
2024/03/19 14:41:21;;;;;;;6.20;4.50;;;;;;;12.40;39.09;97553.95;107898;1244;99894;-83
2024/03/19 14:44:07;;;;;;;5.10;4.40;;;;;;;12.51;38.70;97558.50;107904;1238;99546;-81
2024/03/19 14:47:02;;;;;;;6.80;4.90;;;;;;;12.44;38.52;97560.30;107875;1235;99707;-83
2024/03/19 14:50:10;;;;;;;5.50;4.30;;;;;;;12.26;39.05;97563.66;107871;1237;104308;-80
2024/03/19 14:52:59;;;;;;;8.40;5.10;;;;;;;12.33;38.63;97561.67;105232;1237;3576345;-86
2024/03/19 14:55:59;;;;;;;6.30;4.30;;;;;;;12.15;38.65;97564.40;107849;1243;99536;-83
2024/03/19 14:58:49;;;;;;;6.50;5.10;;;;;;;12.14;38.30;97562.32;107918;1237;99242;-79
2024/03/19 15:01:56;;;;;;;6.00;4.80;;;;;;;11.84;38.25;97560.52;107871;1244;99672;-79
2024/03/19 15:04:48;;;;;;;11.40;5.30;;;;;;;11.55;38.60;97561.55;107920;1239;104736;-78